Flight Track Log - Related Links

Times and Time Zones

All times are in EDT time to prevent confusion due to time zone crossing. See the JIA2328 flight status page for this flight to view local times or setup timezone preferences in your user account.

Time Position Orientation Groundspeed Altitude Reporting Facility
EDT Latitude Longitude Course Direction KTS MPH feet Rate Location/Type
Tue 06:33:58 PM 35.2347 -80.9392 36° Northeast 167 192 1,500  Level Atlanta Center
Tue 06:34:53 PM 35.2675 -80.9100 36° Northeast 210 242 3,600 2,750 Climbing Atlanta Center
Tue 06:35:58 PM 35.2900 -80.8200 73° East 275 316 7,000 2,112 Climbing Atlanta Center
Tue 06:36:58 PM 35.2669 -80.7294 107° East 304 350 8,000 1,200 Climbing Atlanta Center
Tue 06:37:58 PM 35.2225 -80.6319 119° Southeast 304 350 9,400 1,800 Climbing Atlanta Center
Tue 06:38:58 PM 35.1803 -80.5422 120° Southeast 304 350 11,600 2,026 Climbing Atlanta Center
Tue 06:40:32 PM 35.1022 -80.3875 122° Southeast 380 437 14,600 2,090 Climbing Washington Center
Tue 06:41:33 PM 35.0464 -80.2650 119° Southeast 386 444 17,000 2,016 Climbing Washington Center
Tue 06:42:34 PM 34.9961 -80.1658 122° Southeast 395 455 18,700 992 Climbing Washington Center
Tue 06:43:34 PM 34.9594 -80.0344 109° East 395 455 19,000 153 Climbing Washington Center
Tue 06:44:32 PM 34.9317 -79.8811 108° East 412 474 19,000  Level Washington Center
Tue 06:45:32 PM 34.9283 -79.7339 92° East 423 487 19,000  Level Washington Center
Tue 06:46:33 PM 34.9231 -79.5817 92° East 434 499 19,000  Level Washington Center
Tue 06:47:33 PM 34.9156 -79.4319 93° East 439 505 19,000  Level Washington Center
Tue 06:48:34 PM 34.9097 -79.2872 93° East 439 505 19,000  Level Washington Center
Tue 06:49:34 PM 34.9039 -79.1375 93° East 439 505 19,000  Level Washington Center
Tue 06:50:32 PM 34.8972 -79.0031 93° East 446 513 19,000 -303 Level Washington Center
Tue 06:51:33 PM 34.8911 -78.8533 93° East 441 507 18,400 -984 Descending Washington Center
Tue 06:52:34 PM 34.8861 -78.7217 93° East 423 487 17,000 -1,475 Descending Washington Center
Tue 06:53:35 PM 34.8792 -78.5922 94° East 398 458 15,400 -1,613 Descending Washington Center
Tue 06:54:33 PM 34.8717 -78.4728 94° East 376 433 13,800 -1,613 Descending Washington Center
Tue 06:55:34 PM 34.8681 -78.3564 92° East 353 406 12,200 -1,664 Descending Washington Center
Tue 06:56:32 PM 34.8622 -78.2497 94° East 334 384 10,500 -1,780 Descending Washington Center
Tue 06:57:32 PM 34.8558 -78.1508 94° East 310 357 8,700 -1,756 Descending Washington Center
Tue 06:58:35 PM 34.8350 -78.0617 106° East 288 331 6,900 -1,950 Descending Washington Center
Tue 06:59:32 PM 34.8117 -77.9675 107° East 268 308 4,800 -1,932 Descending Washington Center
Tue 07:00:33 PM 34.7925 -77.8858 106° East 256 295 3,100 -885 Descending Washington Center
Tue 07:01:34 PM 34.7711 -77.8019 107° East 256 295 3,000 -158 Descending Washington Center
Tue 07:01:49 PM 34.7653 -77.7739 104° East 262 302 2,900 -295 Descending Washington Center
Tue 07:02:35 PM 34.7539 -77.7231 105° East 250 288 2,700 -514 Descending Washington Center
Tue 07:02:59 PM 34.7542 -77.7003 89° East 196 226 2,300 -1,000 Descending Washington Center

Login

Don't have an account? Register now (free) for customized features, flight alerts, and more!